Time;durP1;ratioP1;P1;durP2;ratioP2;P2;SDS_P1;SDS_P2;PMS_P1;PMS_P2;Temp;Humidity;BMP_temperature;BMP_pressure;BME280_temperature;BME280_humidity;BME280_pressure;Samples;Min_cycle;Max_cycle;Signal;HPM_P1;HPM_P2
2022/11/16 00:01:52;;;;;;;19.80;11.63;;;6.10;99.90;;;;;;7612415;19;20006;-76
2022/11/16 00:04:24;;;;;;;17.75;10.63;;;6.00;99.90;;;;;;7580453;19;20010;-75
2022/11/16 00:06:56;;;;;;;20.83;11.95;;;6.10;99.90;;;;;;7625878;19;20018;-76
2022/11/16 00:09:30;;;;;;;22.77;11.45;;;6.00;99.90;;;;;;7626269;19;20051;-76
2022/11/16 00:12:05;;;;;;;19.10;12.43;;;6.00;99.90;;;;;;7625288;19;20023;-76
2022/11/16 00:14:37;;;;;;;18.85;12.02;;;6.00;99.90;;;;;;7621013;19;20022;-75
2022/11/16 00:17:09;;;;;;;21.00;12.52;;;6.00;99.90;;;;;;7621211;19;20469;-77
2022/11/16 00:19:41;;;;;;;19.65;12.13;;;6.00;99.90;;;;;;7619617;19;20019;-76
2022/11/16 00:22:13;;;;;;;19.98;11.77;;;6.00;99.90;;;;;;7624199;19;20056;-76
2022/11/16 00:24:46;;;;;;;20.42;13.05;;;6.10;99.90;;;;;;7620273;19;20024;-76
2022/11/16 00:27:18;;;;;;;20.98;13.23;;;6.10;99.90;;;;;;7617717;19;20026;-75
2022/11/16 00:29:50;;;;;;;24.00;13.43;;;6.10;99.90;;;;;;7612847;19;20456;-76
2022/11/16 00:32:22;;;;;;;20.55;13.25;;;6.10;99.90;;;;;;7613048;19;20024;-76
2022/11/16 00:34:54;;;;;;;22.45;13.80;;;6.20;99.90;;;;;;7624449;19;20026;-76
2022/11/16 00:37:26;;;;;;;23.77;13.43;;;6.20;99.90;;;;;;7622845;19;20025;-76
2022/11/16 00:39:58;;;;;;;25.17;14.00;;;6.30;99.90;;;;;;7625108;19;20026;-76
2022/11/16 00:42:31;;;;;;;28.25;13.77;;;6.40;99.90;;;;;;7616167;19;20025;-76
2022/11/16 00:45:03;;;;;;;24.05;13.52;;;6.50;99.90;;;;;;7619748;19;20015;-76
2022/11/16 00:47:36;;;;;;;23.17;13.63;;;6.40;99.90;;;;;;7617561;19;20015;-76
2022/11/16 00:50:08;;;;;;;22.07;13.70;;;6.40;99.90;;;;;;7618292;19;20022;-78
2022/11/16 00:52:40;;;;;;;22.13;13.48;;;6.40;99.90;;;;;;7620398;19;20638;-76
2022/11/16 00:55:13;;;;;;;21.10;12.63;;;6.30;99.90;;;;;;7621824;19;20062;-76
2022/11/16 00:57:45;;;;;;;23.27;14.63;;;6.30;99.90;;;;;;7623990;19;20011;-76
2022/11/16 01:00:19;;;;;;;23.13;14.48;;;6.30;99.90;;;;;;7622329;19;20014;-77
2022/11/16 01:02:53;;;;;;;26.13;13.15;;;6.20;99.90;;;;;;7612776;19;20643;-76
2022/11/16 01:05:25;;;;;;;;;;;6.20;99.90;;;;;;7619710;19;20069;-76
2022/11/16 01:07:57;;;;;;;22.85;14.77;;;6.30;99.90;;;;;;7600284;19;19915;-78
2022/11/16 01:10:30;;;;;;;24.27;13.70;;;6.30;99.90;;;;;;7618787;19;20160;-77
2022/11/16 01:13:02;;;;;;;23.35;14.23;;;6.30;99.90;;;;;;7620761;19;20593;-76
2022/11/16 01:15:34;;;;;;;21.75;13.57;;;6.30;99.90;;;;;;7605171;19;20828;-77
2022/11/16 01:18:06;;;;;;;22.27;13.40;;;6.30;99.90;;;;;;7616337;19;20010;-76
2022/11/16 01:20:39;;;;;;;20.55;13.02;;;6.30;99.90;;;;;;7617933;19;20485;-75
2022/11/16 01:23:12;;;;;;;20.92;13.15;;;6.30;99.90;;;;;;7618927;19;20486;-76
2022/11/16 01:25:44;;;;;;;19.40;12.73;;;6.30;99.90;;;;;;7623731;19;20057;-75
2022/11/16 01:28:16;;;;;;;20.13;13.30;;;6.30;99.90;;;;;;7621378;19;20021;-76
2022/11/16 01:30:53;;;;;;;24.85;13.65;;;6.20;99.90;;;;;;7613358;19;20082;-75
2022/11/16 01:33:26;;;;;;;20.50;12.73;;;6.20;99.90;;;;;;7609355;19;20062;-75
2022/11/16 01:35:58;;;;;;;19.60;12.48;;;6.20;99.90;;;;;;7611908;19;20487;-76
2022/11/16 01:38:31;;;;;;;23.98;12.85;;;6.30;99.90;;;;;;7615170;19;20056;-77
2022/11/16 01:41:03;;;;;;;27.08;13.95;;;6.30;99.90;;;;;;7620140;19;20093;-77
2022/11/16 01:43:49;;;;;;;21.33;13.52;;;6.30;99.90;;;;;;7617075;19;20410;-76
2022/11/16 01:46:23;;;;;;;23.17;13.88;;;6.40;99.90;;;;;;7617351;19;20107;-76
2022/11/16 01:49:02;;;;;;;24.60;14.20;;;6.40;99.90;;;;;;7616793;19;20030;-76
2022/11/16 01:51:35;;;;;;;22.20;14.55;;;6.40;99.90;;;;;;7624632;19;20409;-77
2022/11/16 01:54:11;;;;;;;23.05;14.02;;;6.40;99.90;;;;;;7621044;19;20097;-77
2022/11/16 01:56:53;;;;;;;22.15;13.65;;;6.40;99.90;;;;;;7617090;19;20086;-77
2022/11/16 01:59:47;;;;;;;25.90;15.70;;;6.40;99.90;;;;;;7608255;19;20517;-76
2022/11/16 02:02:23;;;;;;;22.48;14.32;;;6.30;99.90;;;;;;7615076;19;20010;-76
2022/11/16 02:04:57;;;;;;;24.00;14.95;;;6.40;99.90;;;;;;7618339;19;20078;-76
2022/11/16 02:11:12;;;;;;;35.03;15.35;;;6.40;99.90;;;;;;7612787;19;20074;-76
2022/11/16 02:13:58;;;;;;;23.90;13.77;;;6.40;99.90;;;;;;7619888;19;20014;-78
2022/11/16 02:16:51;;;;;;;18.35;12.30;;;6.40;99.90;;;;;;7613007;19;20022;-76
2022/11/16 02:19:48;;;;;;;21.02;13.40;;;6.40;99.90;;;;;;7617187;19;20015;-76
2022/11/16 02:22:38;;;;;;;20.10;13.27;;;6.50;99.90;;;;;;7623393;19;20023;-76
2022/11/16 02:25:26;;;;;;;19.83;13.13;;;6.40;99.90;;;;;;7622195;19;20032;-75
2022/11/16 02:28:19;;;;;;;22.52;14.52;;;6.40;99.90;;;;;;7618049;19;20925;-75
2022/11/16 02:30:54;;;;;;;24.97;15.10;;;6.40;99.90;;;;;;7602018;19;20025;-77
2022/11/16 02:33:37;;;;;;;22.48;14.30;;;6.40;99.90;;;;;;7596451;19;20025;-77
2022/11/16 02:36:14;;;;;;;23.75;15.15;;;6.40;99.90;;;;;;7610846;19;20014;-78
2022/11/16 02:39:04;;;;;;;22.05;14.05;;;6.40;99.90;;;;;;7612344;19;20060;-77
2022/11/16 02:41:41;;;;;;;26.30;15.68;;;6.40;99.90;;;;;;7620373;19;21026;-77
2022/11/16 02:44:33;;;;;;;24.85;14.13;;;6.40;99.90;;;;;;7611930;19;20720;-77
2022/11/16 02:47:09;;;;;;;24.10;15.68;;;6.50;99.90;;;;;;7614440;19;20023;-77
2022/11/16 02:49:46;;;;;;;22.98;15.10;;;6.40;99.90;;;;;;7605691;19;20022;-76
2022/11/16 02:52:20;;;;;;;25.67;15.63;;;6.40;99.90;;;;;;7607255;19;20034;-76
2022/11/16 02:54:52;;;;;;;26.52;15.70;;;6.40;99.90;;;;;;7609138;19;20018;-77
2022/11/16 02:57:43;;;;;;;31.90;16.38;;;6.40;99.90;;;;;;7607132;19;20014;-76
2022/11/16 03:00:27;;;;;;;23.45;14.93;;;6.40;99.90;;;;;;7606028;19;20438;-76
2022/11/16 03:03:20;;;;;;;25.23;15.77;;;6.50;99.90;;;;;;7621452;19;20014;-76
2022/11/16 03:05:58;;;;;;;25.83;15.77;;;6.40;99.90;;;;;;7617056;19;20028;-76
2022/11/16 03:08:36;;;;;;;27.65;15.38;;;6.50;99.90;;;;;;7610467;19;20298;-76
2022/11/16 03:14:06;;;;;;;;;;;6.50;99.90;;;;;;7609457;19;20054;-76
2022/11/16 03:16:43;;;;;;;30.63;18.33;;;6.50;99.90;;;;;;7618530;19;19918;-76
2022/11/16 03:19:32;;;;;;;33.42;18.55;;;6.50;99.90;;;;;;7619066;19;20352;-76
2022/11/16 03:22:05;;;;;;;30.38;18.50;;;6.50;99.90;;;;;;7619154;19;20030;-77
2022/11/16 03:24:40;;;;;;;33.20;18.88;;;6.50;99.90;;;;;;7608783;19;20022;-76
2022/11/16 03:27:25;;;;;;;30.10;18.30;;;6.40;99.90;;;;;;7611603;19;20106;-77
2022/11/16 03:30:08;;;;;;;33.17;18.88;;;6.40;99.90;;;;;;7605064;19;20014;-76
2022/11/16 03:32:54;;;;;;;32.17;19.80;;;6.30;99.90;;;;;;7619297;19;20097;-76
2022/11/16 03:35:38;;;;;;;31.60;19.67;;;6.30;99.90;;;;;;7618926;19;20094;-76
2022/11/16 03:38:12;;;;;;;32.85;19.85;;;6.30;99.90;;;;;;7624770;19;20976;-76
2022/11/16 03:40:49;;;;;;;32.80;19.65;;;6.30;99.90;;;;;;7621079;19;20043;-76
2022/11/16 03:43:23;;;;;;;32.20;19.90;;;6.30;99.90;;;;;;7615425;19;20146;-76
2022/11/16 03:45:58;;;;;;;31.27;18.27;;;6.40;99.90;;;;;;7621545;19;20490;-76
2022/11/16 03:48:38;;;;;;;33.47;18.73;;;6.40;99.90;;;;;;7611228;19;20025;-76
2022/11/16 03:51:17;;;;;;;32.92;18.70;;;6.40;99.90;;;;;;7621953;19;20038;-78
2022/11/16 03:53:49;;;;;;;31.98;19.48;;;6.40;99.90;;;;;;7617740;19;20867;-76
2022/11/16 03:56:21;;;;;;;32.20;20.37;;;6.50;99.90;;;;;;7610605;19;20030;-76
2022/11/16 03:58:53;;;;;;;35.95;20.05;;;6.40;99.90;;;;;;7610061;19;20544;-76
2022/11/16 04:01:26;;;;;;;35.38;20.30;;;6.40;99.90;;;;;;7622026;19;20635;-76
2022/11/16 04:03:58;;;;;;;31.13;19.02;;;6.40;99.90;;;;;;7622981;19;20017;-77
2022/11/16 04:29:36;;;;;;;40.42;22.77;;;6.40;99.90;;;;;;7615563;19;20014;-77
2022/11/16 04:37:55;;;;;;;53.97;26.98;;;6.40;99.90;;;;;;7619251;19;20153;-77
2022/11/16 04:40:33;;;;;;;45.00;24.95;;;6.50;99.90;;;;;;7617543;19;20922;-77
2022/11/16 04:43:05;;;;;;;49.53;27.45;;;6.40;99.90;;;;;;7607790;19;20333;-76
2022/11/16 04:48:39;;;;;;;47.92;28.23;;;6.40;99.90;;;;;;7599200;19;20018;-76
2022/11/16 04:51:12;;;;;;;56.33;30.65;;;6.40;99.90;;;;;;7609070;19;20014;-76
2022/11/16 04:53:44;;;;;;;57.97;28.52;;;6.40;99.90;;;;;;7617400;19;20024;-77
2022/11/16 04:56:22;;;;;;;54.35;29.60;;;6.40;99.90;;;;;;7614428;19;20025;-77
2022/11/16 04:58:55;;;;;;;46.75;27.60;;;6.40;99.90;;;;;;7614692;19;20018;-76
2022/11/16 05:04:18;;;;;;;50.50;28.00;;;6.40;99.90;;;;;;7613069;19;20033;-77
2022/11/16 05:06:51;;;;;;;;;;;6.50;99.90;;;;;;7615125;19;20771;-76
2022/11/16 05:09:23;;;;;;;45.58;25.35;;;6.50;99.90;;;;;;7607778;19;19959;-77
2022/11/16 05:11:56;;;;;;;45.67;25.13;;;6.60;99.90;;;;;;7610516;19;20018;-77
2022/11/16 05:14:29;;;;;;;42.70;24.77;;;6.60;99.90;;;;;;7601536;19;20106;-76
2022/11/16 05:17:02;;;;;;;40.92;24.42;;;6.60;99.90;;;;;;7603981;19;20022;-77
2022/11/16 05:22:28;;;;;;;35.25;21.55;;;6.60;99.90;;;;;;7605909;19;20116;-77
2022/11/16 05:25:02;;;;;;;40.50;23.15;;;6.70;99.90;;;;;;7627937;19;20610;-76
2022/11/16 05:27:34;;;;;;;36.10;21.50;;;6.70;99.90;;;;;;7619782;19;20015;-77
2022/11/16 05:30:08;;;;;;;35.47;19.13;;;6.70;99.90;;;;;;7603175;19;20064;-77
2022/11/16 05:32:40;;;;;;;36.37;20.13;;;6.70;99.90;;;;;;7617620;19;20018;-77
2022/11/16 05:35:13;;;;;;;41.38;23.40;;;6.70;99.90;;;;;;7611123;19;20011;-76
2022/11/16 05:37:46;;;;;;;42.72;22.02;;;6.70;99.90;;;;;;7618169;19;20101;-77
2022/11/16 05:40:19;;;;;;;38.75;22.13;;;6.70;99.90;;;;;;7609034;19;20379;-76
2022/11/16 05:42:57;;;;;;;32.13;20.33;;;6.70;99.90;;;;;;7614504;19;20025;-77
2022/11/16 05:45:31;;;;;;;34.83;21.23;;;6.60;99.90;;;;;;7586219;19;20014;-77
2022/11/16 05:48:05;;;;;;;34.17;19.70;;;6.70;99.90;;;;;;7594367;19;20018;-77
2022/11/16 05:50:37;;;;;;;31.75;18.67;;;6.70;99.90;;;;;;7610428;19;20151;-76
2022/11/16 05:53:20;;;;;;;29.25;18.90;;;6.70;99.90;;;;;;7615559;19;20018;-77
2022/11/16 05:55:53;;;;;;;34.17;20.02;;;6.80;99.90;;;;;;7597891;19;20018;-77
2022/11/16 05:58:27;;;;;;;40.13;21.75;;;6.80;99.90;;;;;;7595610;19;20112;-77
2022/11/16 06:01:01;;;;;;;;;;;6.80;99.90;;;;;;7610342;19;20018;-77
2022/11/16 06:03:34;;;;;;;33.97;18.58;;;6.80;99.90;;;;;;7614198;19;20355;-77
2022/11/16 06:06:07;;;;;;;31.27;17.55;;;6.80;99.90;;;;;;7597581;19;20040;-76
2022/11/16 06:08:39;;;;;;;33.40;18.50;;;6.90;99.90;;;;;;7611990;19;20010;-76
2022/11/16 06:11:15;;;;;;;45.22;21.95;;;6.90;99.90;;;;;;7617649;19;20661;-76
2022/11/16 06:13:48;;;;;;;32.33;18.60;;;7.00;99.90;;;;;;7608895;19;20028;-77
2022/11/16 06:16:23;;;;;;;27.27;15.98;;;7.00;99.90;;;;;;7605745;19;20048;-78
2022/11/16 06:18:56;;;;;;;36.17;18.02;;;7.00;99.90;;;;;;7618798;19;20054;-77
2022/11/16 06:21:28;;;;;;;32.35;19.63;;;7.00;99.90;;;;;;7598365;19;20018;-77
2022/11/16 06:24:01;;;;;;;40.17;20.83;;;7.00;99.90;;;;;;7612752;19;20022;-77
2022/11/16 06:26:34;;;;;;;28.15;17.58;;;7.00;99.90;;;;;;7614595;19;20015;-78
2022/11/16 06:29:06;;;;;;;38.07;20.63;;;7.00;99.90;;;;;;7608619;19;20034;-78
2022/11/16 06:31:39;;;;;;;35.30;20.08;;;7.10;99.90;;;;;;7599244;19;20325;-78
2022/11/16 06:34:11;;;;;;;63.90;32.03;;;7.10;99.90;;;;;;7596063;19;20019;-78
2022/11/16 06:36:43;;;;;;;40.95;24.73;;;7.10;99.90;;;;;;7598921;19;20069;-76
2022/11/16 06:39:16;;;;;;;49.97;24.42;;;7.10;99.90;;;;;;7605188;19;20042;-77
2022/11/16 06:41:49;;;;;;;42.08;25.48;;;7.20;99.90;;;;;;7610270;19;20086;-76
2022/11/16 06:44:22;;;;;;;29.60;18.50;;;7.20;99.90;;;;;;7605648;19;20721;-77
2022/11/16 06:47:00;;;;;;;29.30;18.20;;;7.20;99.90;;;;;;7598538;19;20020;-77
2022/11/16 06:49:32;;;;;;;27.55;17.58;;;7.20;99.90;;;;;;7596424;19;20048;-77
2022/11/16 06:52:09;;;;;;;34.47;18.92;;;7.30;99.90;;;;;;7611436;19;20018;-77
2022/11/16 06:54:41;;;;;;;27.33;17.52;;;7.30;99.90;;;;;;7592609;19;20018;-76
2022/11/16 06:57:13;;;;;;;33.53;18.98;;;7.30;99.90;;;;;;7600293;19;20022;-76
2022/11/16 06:59:45;;;;;;;25.65;16.40;;;7.40;99.90;;;;;;7598833;19;20794;-77
2022/11/16 07:02:20;;;;;;;29.27;18.63;;;7.40;99.90;;;;;;7592058;19;20018;-77
2022/11/16 07:04:52;;;;;;;28.27;17.33;;;7.40;99.90;;;;;;7597106;19;20093;-77
2022/11/16 07:07:39;;;;;;;31.48;17.73;;;7.50;99.90;;;;;;7571021;19;20017;-77
2022/11/16 07:10:12;;;;;;;30.00;17.63;;;7.50;99.90;;;;;;7599187;19;20018;-77
2022/11/16 07:12:45;;;;;;;31.67;17.50;;;7.60;99.90;;;;;;7578535;19;20022;-76
2022/11/16 07:15:19;;;;;;;32.45;18.75;;;7.60;99.90;;;;;;7566052;19;20015;-77
2022/11/16 07:17:52;;;;;;;33.67;18.02;;;7.60;99.90;;;;;;7570159;19;20584;-77
2022/11/16 07:20:24;;;;;;;30.33;17.65;;;7.60;99.90;;;;;;7556354;19;20021;-76
2022/11/16 07:22:59;;;;;;;41.17;20.73;;;7.60;99.90;;;;;;7581569;19;20011;-76
2022/11/16 07:25:33;;;;;;;36.40;18.33;;;7.60;99.90;;;;;;7590113;19;20112;-76
2022/11/16 07:28:06;;;;;;;42.00;21.83;;;7.70;99.90;;;;;;7575084;19;20037;-77
2022/11/16 07:30:39;;;;;;;39.83;18.87;;;7.70;99.90;;;;;;7590256;19;20351;-77
2022/11/16 07:33:16;;;;;;;34.47;18.33;;;7.70;99.90;;;;;;7588587;19;21196;-77
2022/11/16 07:36:13;;;;;;;37.47;16.33;;;7.80;99.90;;;;;;7583035;19;20022;-77
2022/11/16 07:38:45;;;;;;;29.77;16.88;;;7.80;99.90;;;;;;7583778;19;20116;-77
2022/11/16 07:41:19;;;;;;;26.95;15.40;;;7.90;99.90;;;;;;7591751;19;20025;-76
2022/11/16 07:44:07;;;;;;;25.77;15.55;;;7.90;99.90;;;;;;7606529;19;20018;-76
2022/11/16 07:46:45;;;;;;;41.92;20.70;;;8.00;99.90;;;;;;7584681;19;20023;-76
2022/11/16 07:49:20;;;;;;;41.25;20.27;;;8.00;99.90;;;;;;7600131;19;20030;-76
2022/11/16 07:51:57;;;;;;;33.85;18.85;;;7.90;99.90;;;;;;7604261;19;20033;-76
2022/11/16 07:54:39;;;;;;;29.58;17.27;;;8.00;99.90;;;;;;7586994;19;20025;-76
2022/11/16 07:57:12;;;;;;;31.00;17.90;;;8.00;99.90;;;;;;7597472;19;20041;-76
2022/11/16 07:59:45;;;;;;;35.63;17.33;;;8.10;99.90;;;;;;7600922;19;20048;-76
2022/11/16 08:02:18;;;;;;;31.70;16.98;;;8.10;99.90;;;;;;7604823;19;20050;-76
2022/11/16 08:04:50;;;;;;;31.88;17.10;;;8.20;99.90;;;;;;7589723;19;20011;-76
2022/11/16 08:07:29;;;;;;;35.33;18.13;;;8.20;99.90;;;;;;7599534;19;20030;-76
2022/11/16 08:10:02;;;;;;;30.80;17.07;;;8.20;99.90;;;;;;7603957;19;20052;-76
2022/11/16 08:12:34;;;;;;;33.93;18.43;;;8.30;99.90;;;;;;7592126;19;26163;-76
2022/11/16 08:15:07;;;;;;;28.45;16.20;;;8.30;99.90;;;;;;7589777;19;20527;-76
2022/11/16 08:17:39;;;;;;;27.87;15.83;;;8.30;99.90;;;;;;7602226;19;20026;-77
2022/11/16 08:20:15;;;;;;;34.80;16.25;;;8.40;99.90;;;;;;7606478;19;20372;-76
2022/11/16 08:22:49;;;;;;;27.95;15.48;;;8.40;99.90;;;;;;7606303;19;20033;-76
2022/11/16 08:25:22;;;;;;;28.38;16.15;;;8.40;99.90;;;;;;7607201;19;20021;-76
2022/11/16 08:27:55;;;;;;;29.80;17.30;;;8.50;99.90;;;;;;7603673;19;20047;-76
2022/11/16 08:30:27;;;;;;;30.50;19.25;;;8.50;99.90;;;;;;7604332;19;20014;-77
2022/11/16 08:32:59;;;;;;;33.65;18.23;;;8.50;99.90;;;;;;7605156;19;20014;-77
2022/11/16 08:35:33;;;;;;;32.55;18.13;;;8.60;99.90;;;;;;7601208;19;20018;-77
2022/11/16 08:38:05;;;;;;;41.63;20.33;;;8.60;99.90;;;;;;7605419;19;20066;-76
2022/11/16 08:40:38;;;;;;;33.45;17.60;;;8.60;99.90;;;;;;7609366;19;20026;-77
2022/11/16 08:43:11;;;;;;;29.25;16.90;;;8.60;99.90;;;;;;7606587;19;20022;-76
2022/11/16 08:45:47;;;;;;;35.30;18.90;;;8.60;99.90;;;;;;7602322;19;20902;-76
2022/11/16 08:48:20;;;;;;;29.48;16.25;;;8.70;99.90;;;;;;7604164;19;20018;-76
2022/11/16 08:50:52;;;;;;;30.88;16.40;;;8.70;99.90;;;;;;7609608;19;20418;-76
2022/11/16 08:53:48;;;;;;;24.42;15.10;;;8.80;99.90;;;;;;7606709;19;20021;-76
2022/11/16 08:56:22;;;;;;;30.48;16.75;;;8.80;99.90;;;;;;7605481;19;20018;-76
2022/11/16 08:58:54;;;;;;;28.60;15.20;;;8.80;99.90;;;;;;7602156;19;20061;-76
2022/11/16 09:01:31;;;;;;;27.33;15.68;;;8.80;99.90;;;;;;7602996;19;20018;-76
2022/11/16 09:04:04;;;;;;;28.00;17.45;;;8.90;99.90;;;;;;7590260;19;20010;-76
2022/11/16 09:06:36;;;;;;;33.65;18.08;;;8.90;99.90;;;;;;7603517;19;20497;-77
2022/11/16 09:09:08;;;;;;;39.80;21.25;;;8.90;99.90;;;;;;7603805;19;20023;-76
2022/11/16 09:11:40;;;;;;;33.15;18.95;;;8.90;99.90;;;;;;7601066;19;20060;-77
2022/11/16 09:14:12;;;;;;;28.88;16.80;;;9.00;99.90;;;;;;7610308;19;20641;-76
2022/11/16 09:16:44;;;;;;;27.52;16.17;;;9.00;99.90;;;;;;7612809;19;20366;-76
2022/11/16 09:19:16;;;;;;;30.00;18.25;;;9.00;99.90;;;;;;7599659;19;20018;-76
2022/11/16 09:21:49;;;;;;;26.55;17.73;;;9.10;99.90;;;;;;7602378;19;20011;-76
2022/11/16 09:24:21;;;;;;;22.67;16.25;;;9.10;99.90;;;;;;7610905;19;20010;-76
2022/11/16 09:26:55;;;;;;;33.70;17.85;;;9.10;99.90;;;;;;7611690;19;20019;-76
2022/11/16 09:29:27;;;;;;;19.90;11.55;;;9.20;99.90;;;;;;7608657;19;20019;-76
2022/11/16 09:32:01;;;;;;;19.45;12.38;;;9.30;99.90;;;;;;7605522;19;20014;-76
2022/11/16 09:34:34;;;;;;;19.17;11.45;;;9.30;99.90;;;;;;7591228;19;20010;-76
2022/11/16 09:37:06;;;;;;;18.17;11.13;;;9.40;99.90;;;;;;7594823;19;20023;-77
2022/11/16 09:39:39;;;;;;;18.07;11.77;;;9.50;99.90;;;;;;7599807;19;20028;-76
2022/11/16 09:42:29;;;;;;;22.52;13.40;;;9.50;99.90;;;;;;7606971;19;20021;-76
2022/11/16 09:45:14;;;;;;;17.08;10.55;;;9.50;99.90;;;;;;7608462;19;20015;-76
2022/11/16 09:47:56;;;;;;;20.42;9.90;;;9.50;99.90;;;;;;7610535;19;20018;-76
2022/11/16 09:50:52;;;;;;;15.05;9.82;;;9.60;99.90;;;;;;7589468;19;20026;-76
2022/11/16 09:53:36;;;;;;;15.57;8.70;;;9.60;99.90;;;;;;7567691;19;20028;-76
2022/11/16 09:56:19;;;;;;;16.75;9.82;;;9.70;99.90;;;;;;7579132;19;20006;-76
2022/11/16 09:58:53;;;;;;;16.08;9.55;;;9.70;99.90;;;;;;7576662;19;20015;-76
2022/11/16 10:01:28;;;;;;;16.38;10.18;;;9.70;99.90;;;;;;7577302;19;20048;-76
2022/11/16 10:04:13;;;;;;;15.32;9.10;;;9.80;99.90;;;;;;7580431;19;20014;-76
2022/11/16 10:06:45;;;;;;;16.90;9.38;;;9.80;99.90;;;;;;7587571;19;20101;-76
2022/11/16 10:09:18;;;;;;;16.67;7.85;;;9.80;99.90;;;;;;7603886;19;21011;-75
2022/11/16 10:12:13;;;;;;;15.32;9.45;;;9.80;99.90;;;;;;7609764;19;20031;-77
2022/11/16 10:15:06;;;;;;;17.50;9.35;;;9.80;99.90;;;;;;7582484;19;20018;-77
2022/11/16 10:17:50;;;;;;;20.52;10.68;;;9.80;99.90;;;;;;7597610;19;20038;-77
2022/11/16 10:20:25;;;;;;;13.85;8.57;;;9.80;99.90;;;;;;7575360;19;20023;-76
2022/11/16 10:23:17;;;;;;;15.07;10.20;;;9.80;99.90;;;;;;7594709;19;20048;-76
2022/11/16 10:25:54;;;;;;;16.88;9.02;;;9.80;99.90;;;;;;7579940;19;20023;-75
2022/11/16 10:28:41;;;;;;;13.50;8.25;;;9.80;99.90;;;;;;7580910;19;20018;-76
2022/11/16 10:31:13;;;;;;;16.35;9.75;;;9.90;99.90;;;;;;7571599;19;20603;-76
2022/11/16 10:33:49;;;;;;;19.52;10.32;;;9.80;99.90;;;;;;7582018;19;20018;-76
2022/11/16 10:36:26;;;;;;;29.65;13.93;;;9.90;99.90;;;;;;7562089;19;20011;-76
2022/11/16 10:39:01;;;;;;;14.82;8.55;;;9.90;99.90;;;;;;7569944;19;20014;-76
2022/11/16 10:41:43;;;;;;;13.80;8.40;;;9.90;99.90;;;;;;7579693;19;20068;-77
2022/11/16 10:44:40;;;;;;;15.50;9.93;;;9.90;99.90;;;;;;7588588;19;20021;-76
2022/11/16 10:47:35;;;;;;;14.57;8.82;;;9.80;99.90;;;;;;7594018;19;20014;-75
2022/11/16 10:50:34;;;;;;;17.60;8.68;;;9.80;99.90;;;;;;7583743;19;20021;-76
2022/11/16 10:53:13;;;;;;;15.43;8.70;;;9.80;99.90;;;;;;7601054;19;20025;-75
2022/11/16 10:55:59;;;;;;;19.55;8.65;;;9.80;99.90;;;;;;7594691;19;20015;-75
2022/11/16 10:58:52;;;;;;;19.13;10.00;;;9.80;99.90;;;;;;7583820;19;20085;-75
2022/11/16 11:01:32;;;;;;;14.30;9.48;;;9.80;99.90;;;;;;7592488;19;20025;-77
2022/11/16 11:04:22;;;;;;;14.07;8.73;;;9.90;99.90;;;;;;7598580;19;20640;-76
2022/11/16 11:06:59;;;;;;;19.75;9.95;;;9.90;99.90;;;;;;7607615;19;20047;-77
2022/11/16 11:09:33;;;;;;;22.70;11.02;;;9.90;99.90;;;;;;7587411;19;20019;-77
2022/11/16 11:12:37;;;;;;;13.95;9.27;;;9.90;99.90;;;;;;7590678;19;20011;-76
2022/11/16 11:15:27;;;;;;;18.55;10.15;;;10.00;99.90;;;;;;7588788;19;20054;-77
2022/11/16 11:18:20;;;;;;;15.50;9.40;;;10.00;99.90;;;;;;7590921;19;20052;-77
2022/11/16 11:21:17;;;;;;;12.80;8.50;;;10.10;99.90;;;;;;7592966;19;20018;-77
2022/11/16 11:23:52;;;;;;;15.15;8.88;;;10.10;99.90;;;;;;7604037;19;20275;-77
2022/11/16 11:26:40;;;;;;;15.00;8.50;;;10.10;99.90;;;;;;7595064;19;20365;-77
2022/11/16 11:29:36;;;;;;;13.40;8.00;;;10.10;99.90;;;;;;7593319;19;20011;-78
2022/11/16 11:32:17;;;;;;;13.85;8.35;;;10.20;99.90;;;;;;7599561;19;20709;-77
2022/11/16 11:34:56;;;;;;;11.05;7.68;;;10.20;99.90;;;;;;7604275;19;20644;-77
2022/11/16 11:37:32;;;;;;;13.90;8.90;;;10.20;99.90;;;;;;7599043;19;20019;-77
2022/11/16 11:40:21;;;;;;;13.90;7.80;;;10.30;99.90;;;;;;7591909;19;20018;-77
2022/11/16 11:43:02;;;;;;;13.50;7.20;;;10.30;99.90;;;;;;7595861;19;20018;-77
2022/11/16 11:45:53;;;;;;;10.95;7.78;;;10.40;99.90;;;;;;7610646;19;20013;-77
2022/11/16 11:48:48;;;;;;;14.95;7.20;;;10.40;99.90;;;;;;7592800;19;20017;-77
2022/11/16 11:51:30;;;;;;;13.23;7.38;;;10.40;99.90;;;;;;7605474;19;20025;-77
2022/11/16 11:54:06;;;;;;;13.27;6.90;;;10.40;99.90;;;;;;7593648;19;20020;-77
2022/11/16 11:56:38;;;;;;;11.82;7.20;;;10.40;99.90;;;;;;7605540;19;20020;-77
2022/11/16 11:59:17;;;;;;;13.70;6.90;;;10.40;99.90;;;;;;7606746;19;20010;-78
2022/11/16 12:01:52;;;;;;;13.10;7.70;;;10.50;99.90;;;;;;7606580;19;20202;-78
2022/11/16 12:04:45;;;;;;;23.75;13.45;;;10.50;99.90;;;;;;7588272;19;20022;-78
2022/11/16 12:07:55;;;;;;;31.42;16.63;;;10.50;99.90;;;;;;7613477;19;20014;-78
2022/11/16 12:10:33;;;;;;;19.50;10.40;;;10.60;99.90;;;;;;7610754;19;20010;-78
2022/11/16 12:13:05;;;;;;;17.70;9.85;;;10.60;99.90;;;;;;7613708;19;20034;-78
2022/11/16 12:15:56;;;;;;;13.32;7.50;;;10.60;99.90;;;;;;7616285;19;20014;-78
2022/11/16 12:19:13;;;;;;;11.00;7.20;;;10.70;99.90;;;;;;7607293;19;20117;-78
2022/11/16 12:21:53;;;;;;;14.40;8.40;;;10.70;99.90;;;;;;7584111;19;20045;-78
2022/11/16 12:24:55;;;;;;;14.07;8.85;;;10.70;99.90;;;;;;7598835;19;20007;-77
2022/11/16 12:28:08;;;;;;;26.27;14.07;;;10.70;99.90;;;;;;7611030;19;20023;-76
2022/11/16 12:31:21;;;;;;;23.65;11.65;;;10.70;99.90;;;;;;7616328;19;20132;-76
2022/11/16 12:34:08;;;;;;;11.77;7.68;;;10.70;99.90;;;;;;7608048;19;20054;-76
2022/11/16 12:36:57;;;;;;;11.68;7.43;;;10.60;99.90;;;;;;7612053;19;20079;-76
2022/11/16 12:40:13;;;;;;;14.48;7.07;;;10.60;99.90;;;;;;7616334;19;20014;-75
2022/11/16 12:43:04;;;;;;;8.52;6.15;;;10.60;99.90;;;;;;7615670;19;20071;-77
2022/11/16 12:45:57;;;;;;;15.93;7.25;;;10.50;99.90;;;;;;7619051;19;20434;-76
2022/11/16 12:48:54;;;;;;;11.43;6.28;;;10.50;99.90;;;;;;7611571;19;20022;-77
2022/11/16 12:51:26;;;;;;;10.02;6.13;;;10.60;99.90;;;;;;7615905;19;21759;-76
2022/11/16 12:54:24;;;;;;;14.80;7.18;;;10.60;99.90;;;;;;7615300;19;20022;-76
2022/11/16 12:57:02;;;;;;;13.52;6.63;;;10.60;99.90;;;;;;7617777;19;20014;-76
2022/11/16 13:00:02;;;;;;;11.80;7.22;;;10.60;99.90;;;;;;7618160;19;20060;-76
2022/11/16 13:02:50;;;;;;;12.57;7.18;;;10.60;99.90;;;;;;7612365;19;20025;-76
2022/11/16 13:06:09;;;;;;;10.10;5.32;;;10.60;99.90;;;;;;7613469;19;20034;-77
2022/11/16 13:09:20;;;;;;;10.18;6.20;;;10.60;99.90;;;;;;7619796;19;20607;-77
2022/11/16 13:12:13;;;;;;;12.05;6.22;;;10.80;99.90;;;;;;7612256;19;20017;-78
2022/11/16 13:14:52;;;;;;;9.88;5.10;;;10.80;99.90;;;;;;7615039;19;20054;-78
2022/11/16 13:17:30;;;;;;;14.20;5.93;;;11.10;99.90;;;;;;7617308;19;20025;-77
2022/11/16 13:20:21;;;;;;;6.68;4.95;;;11.20;99.90;;;;;;7604282;19;20019;-78
2022/11/16 13:23:17;;;;;;;9.35;5.43;;;11.80;99.90;;;;;;7615120;19;20017;-78
2022/11/16 13:26:09;;;;;;;12.52;4.18;;;12.10;99.90;;;;;;7619417;19;20019;-78
2022/11/16 13:29:13;;;;;;;9.02;4.38;;;12.20;99.90;;;;;;7613525;19;20019;-77
2022/11/16 13:31:58;;;;;;;8.98;4.57;;;12.40;99.90;;;;;;7609095;19;20022;-77
2022/11/16 13:34:34;;;;;;;9.95;4.93;;;13.10;99.90;;;;;;7604888;19;20014;-77
2022/11/16 13:37:37;;;;;;;9.68;4.57;;;14.10;99.90;;;;;;7556110;19;20037;-77
2022/11/16 13:40:21;;;;;;;8.13;4.10;;;14.70;99.90;;;;;;7599307;19;20469;-77
2022/11/16 13:42:56;;;;;;;8.75;3.88;;;15.20;99.90;;;;;;7602014;19;20021;-78
2022/11/16 13:45:37;;;;;;;6.97;3.75;;;14.70;99.90;;;;;;7603739;19;20037;-78
2022/11/16 13:48:19;;;;;;;6.82;3.55;;;14.20;99.90;;;;;;7590221;19;20129;-77
2022/11/16 13:50:57;;;;;;;7.90;3.35;;;13.90;99.90;;;;;;7596757;19;20018;-77
2022/11/16 13:53:36;;;;;;;7.03;3.03;;;13.70;99.90;;;;;;7592983;19;20060;-76
2022/11/16 13:56:47;;;;;;;7.38;3.10;;;13.10;99.90;;;;;;7596018;19;20573;-76
2022/11/16 13:59:26;;;;;;;4.68;2.63;;;12.60;99.90;;;;;;7597778;19;20018;-76
2022/11/16 14:02:22;;;;;;;7.88;3.45;;;12.30;99.90;;;;;;7593502;19;20021;-76
2022/11/16 14:04:57;;;;;;;10.43;3.20;;;12.00;99.90;;;;;;7605345;19;20570;-76
2022/11/16 14:07:41;;;;;;;9.52;3.25;;;11.80;99.90;;;;;;7597656;19;20018;-76
2022/11/16 14:10:51;;;;;;;6.10;2.60;;;11.70;99.90;;;;;;7602274;19;20019;-76
2022/11/16 14:13:39;;;;;;;11.40;3.15;;;11.60;99.90;;;;;;7592009;19;20078;-78
2022/11/16 14:16:18;;;;;;;5.93;2.80;;;11.50;99.90;;;;;;7600195;19;20930;-76
2022/11/16 14:18:50;;;;;;;5.13;2.90;;;11.50;99.90;;;;;;7601661;19;20014;-76
2022/11/16 14:21:37;;;;;;;4.93;2.83;;;12.00;99.90;;;;;;7601362;19;20026;-76
2022/11/16 14:24:45;;;;;;;5.32;2.80;;;12.20;99.90;;;;;;7606341;19;20021;-76
2022/11/16 14:27:27;;;;;;;9.25;5.18;;;13.00;99.90;;;;;;7587500;19;20688;-76